sensor_id;sensor_type;location;lat;lon;timestamp;P1;durP1;ratioP1;P2;durP2;ratioP2
13698;SDS011;6921;53.642;9.956;2023-03-31T00:00:18;26.85;;;7.53;;
13698;SDS011;6921;53.642;9.956;2023-03-31T00:02:21;27.45;;;7.25;;
13698;SDS011;6921;53.642;9.956;2023-03-31T00:04:25;30.15;;;7.82;;
13698;SDS011;6921;53.642;9.956;2023-03-31T00:06:33;22.73;;;7.05;;
13698;SDS011;6921;53.642;9.956;2023-03-31T00:08:38;26.05;;;7.15;;
13698;SDS011;6921;53.642;9.956;2023-03-31T00:10:42;24.88;;;7.70;;
13698;SDS011;6921;53.642;9.956;2023-03-31T00:12:46;25.33;;;7.57;;
13698;SDS011;6921;53.642;9.956;2023-03-31T00:14:50;23.67;;;7.30;;
13698;SDS011;6921;53.642;9.956;2023-03-31T00:16:55;23.90;;;7.53;;
13698;SDS011;6921;53.642;9.956;2023-03-31T00:19:02;30.40;;;7.43;;
13698;SDS011;6921;53.642;9.956;2023-03-31T00:21:07;25.30;;;7.55;;
13698;SDS011;6921;53.642;9.956;2023-03-31T00:23:14;29.20;;;7.70;;
13698;SDS011;6921;53.642;9.956;2023-03-31T00:25:18;19.42;;;7.95;;
13698;SDS011;6921;53.642;9.956;2023-03-31T00:27:21;22.90;;;7.15;;
13698;SDS011;6921;53.642;9.956;2023-03-31T00:29:25;25.85;;;6.93;;
13698;SDS011;6921;53.642;9.956;2023-03-31T00:31:29;23.00;;;6.57;;
13698;SDS011;6921;53.642;9.956;2023-03-31T00:33:34;21.65;;;6.00;;
13698;SDS011;6921;53.642;9.956;2023-03-31T00:35:38;23.52;;;7.28;;
13698;SDS011;6921;53.642;9.956;2023-03-31T00:37:42;26.92;;;6.88;;
13698;SDS011;6921;53.642;9.956;2023-03-31T00:39:48;19.42;;;5.85;;
13698;SDS011;6921;53.642;9.956;2023-03-31T00:41:52;27.48;;;6.72;;
13698;SDS011;6921;53.642;9.956;2023-03-31T00:44:00;21.07;;;5.93;;
13698;SDS011;6921;53.642;9.956;2023-03-31T00:46:05;27.23;;;5.85;;
13698;SDS011;6921;53.642;9.956;2023-03-31T00:48:15;21.90;;;5.73;;
13698;SDS011;6921;53.642;9.956;2023-03-31T00:50:22;17.27;;;5.50;;
13698;SDS011;6921;53.642;9.956;2023-03-31T00:52:31;22.48;;;6.10;;
13698;SDS011;6921;53.642;9.956;2023-03-31T00:54:37;21.10;;;5.70;;
13698;SDS011;6921;53.642;9.956;2023-03-31T00:56:45;21.03;;;5.57;;
13698;SDS011;6921;53.642;9.956;2023-03-31T00:58:49;22.02;;;5.28;;
13698;SDS011;6921;53.642;9.956;2023-03-31T01:00:54;18.10;;;5.45;;
13698;SDS011;6921;53.642;9.956;2023-03-31T01:03:00;15.80;;;4.85;;
13698;SDS011;6921;53.642;9.956;2023-03-31T01:05:05;14.55;;;4.47;;
13698;SDS011;6921;53.642;9.956;2023-03-31T01:07:12;22.58;;;4.78;;
13698;SDS011;6921;53.642;9.956;2023-03-31T01:09:19;18.65;;;4.55;;
13698;SDS011;6921;53.642;9.956;2023-03-31T01:11:23;19.42;;;4.20;;
13698;SDS011;6921;53.642;9.956;2023-03-31T01:13:27;17.47;;;4.67;;
13698;SDS011;6921;53.642;9.956;2023-03-31T01:15:32;20.40;;;4.53;;
13698;SDS011;6921;53.642;9.956;2023-03-31T01:17:36;16.50;;;4.05;;
13698;SDS011;6921;53.642;9.956;2023-03-31T01:19:43;23.17;;;4.93;;
13698;SDS011;6921;53.642;9.956;2023-03-31T01:22:13;16.47;;;4.30;;
13698;SDS011;6921;53.642;9.956;2023-03-31T01:24:33;13.95;;;4.13;;
13698;SDS011;6921;53.642;9.956;2023-03-31T01:27:00;16.30;;;4.40;;
13698;SDS011;6921;53.642;9.956;2023-03-31T01:29:11;19.07;;;3.63;;
13698;SDS011;6921;53.642;9.956;2023-03-31T01:31:36;19.55;;;3.97;;
13698;SDS011;6921;53.642;9.956;2023-03-31T01:33:57;17.83;;;4.22;;
13698;SDS011;6921;53.642;9.956;2023-03-31T01:36:07;20.43;;;4.17;;
13698;SDS011;6921;53.642;9.956;2023-03-31T01:38:43;23.37;;;4.90;;
13698;SDS011;6921;53.642;9.956;2023-03-31T01:41:00;17.17;;;3.90;;
13698;SDS011;6921;53.642;9.956;2023-03-31T01:43:07;12.10;;;3.50;;
13698;SDS011;6921;53.642;9.956;2023-03-31T01:45:15;23.40;;;4.13;;
13698;SDS011;6921;53.642;9.956;2023-03-31T01:47:23;21.50;;;4.70;;
13698;SDS011;6921;53.642;9.956;2023-03-31T01:49:31;21.53;;;4.27;;
13698;SDS011;6921;53.642;9.956;2023-03-31T01:51:40;19.50;;;4.88;;
13698;SDS011;6921;53.642;9.956;2023-03-31T01:53:47;16.95;;;4.07;;
13698;SDS011;6921;53.642;9.956;2023-03-31T01:55:56;17.80;;;4.32;;
13698;SDS011;6921;53.642;9.956;2023-03-31T01:58:06;15.87;;;3.50;;
13698;SDS011;6921;53.642;9.956;2023-03-31T02:00:11;20.37;;;4.53;;
13698;SDS011;6921;53.642;9.956;2023-03-31T02:02:16;18.02;;;4.28;;
13698;SDS011;6921;53.642;9.956;2023-03-31T02:04:26;18.88;;;3.95;;
13698;SDS011;6921;53.642;9.956;2023-03-31T02:06:32;18.58;;;4.47;;
13698;SDS011;6921;53.642;9.956;2023-03-31T02:08:38;20.65;;;4.57;;
13698;SDS011;6921;53.642;9.956;2023-03-31T02:10:43;15.50;;;4.63;;
13698;SDS011;6921;53.642;9.956;2023-03-31T02:12:47;16.80;;;4.00;;
13698;SDS011;6921;53.642;9.956;2023-03-31T02:14:53;16.95;;;3.88;;
13698;SDS011;6921;53.642;9.956;2023-03-31T02:16:57;14.73;;;3.92;;
13698;SDS011;6921;53.642;9.956;2023-03-31T02:19:03;15.30;;;3.40;;
13698;SDS011;6921;53.642;9.956;2023-03-31T02:21:06;9.60;;;3.72;;
13698;SDS011;6921;53.642;9.956;2023-03-31T02:23:11;15.57;;;3.85;;
13698;SDS011;6921;53.642;9.956;2023-03-31T02:25:16;19.60;;;4.22;;
13698;SDS011;6921;53.642;9.956;2023-03-31T02:27:22;15.20;;;3.70;;
13698;SDS011;6921;53.642;9.956;2023-03-31T02:29:27;13.30;;;3.60;;
13698;SDS011;6921;53.642;9.956;2023-03-31T02:31:34;17.57;;;3.60;;
13698;SDS011;6921;53.642;9.956;2023-03-31T02:33:42;14.05;;;3.38;;
13698;SDS011;6921;53.642;9.956;2023-03-31T02:35:46;14.27;;;3.72;;
13698;SDS011;6921;53.642;9.956;2023-03-31T02:37:49;14.02;;;3.70;;
13698;SDS011;6921;53.642;9.956;2023-03-31T02:39:54;13.45;;;4.22;;
13698;SDS011;6921;53.642;9.956;2023-03-31T02:41:58;17.75;;;4.53;;
13698;SDS011;6921;53.642;9.956;2023-03-31T02:44:07;17.95;;;4.22;;
13698;SDS011;6921;53.642;9.956;2023-03-31T02:46:10;13.13;;;4.13;;
13698;SDS011;6921;53.642;9.956;2023-03-31T02:48:16;13.52;;;4.38;;
13698;SDS011;6921;53.642;9.956;2023-03-31T02:50:20;16.73;;;4.38;;
13698;SDS011;6921;53.642;9.956;2023-03-31T02:57:31;12.43;;;4.50;;
13698;SDS011;6921;53.642;9.956;2023-03-31T02:59:42;15.07;;;4.67;;
13698;SDS011;6921;53.642;9.956;2023-03-31T03:01:52;22.02;;;4.70;;
13698;SDS011;6921;53.642;9.956;2023-03-31T03:04:06;15.75;;;4.70;;
13698;SDS011;6921;53.642;9.956;2023-03-31T03:06:17;16.58;;;4.85;;
13698;SDS011;6921;53.642;9.956;2023-03-31T03:08:24;14.90;;;4.82;;
13698;SDS011;6921;53.642;9.956;2023-03-31T03:10:34;15.98;;;5.63;;
13698;SDS011;6921;53.642;9.956;2023-03-31T03:12:39;11.82;;;5.32;;
13698;SDS011;6921;53.642;9.956;2023-03-31T03:14:45;18.48;;;5.60;;
13698;SDS011;6921;53.642;9.956;2023-03-31T03:16:52;14.82;;;4.90;;
13698;SDS011;6921;53.642;9.956;2023-03-31T03:18:59;15.27;;;5.00;;
13698;SDS011;6921;53.642;9.956;2023-03-31T03:21:04;14.48;;;5.47;;
13698;SDS011;6921;53.642;9.956;2023-03-31T03:23:08;15.32;;;5.30;;
13698;SDS011;6921;53.642;9.956;2023-03-31T03:25:12;15.77;;;5.30;;
13698;SDS011;6921;53.642;9.956;2023-03-31T03:27:17;11.23;;;5.03;;
13698;SDS011;6921;53.642;9.956;2023-03-31T03:29:22;16.15;;;6.18;;
13698;SDS011;6921;53.642;9.956;2023-03-31T03:31:27;15.93;;;5.80;;
13698;SDS011;6921;53.642;9.956;2023-03-31T03:33:31;18.33;;;7.03;;
13698;SDS011;6921;53.642;9.956;2023-03-31T03:35:34;12.90;;;6.00;;
13698;SDS011;6921;53.642;9.956;2023-03-31T03:37:39;13.02;;;5.97;;
13698;SDS011;6921;53.642;9.956;2023-03-31T03:39:43;12.00;;;5.88;;
13698;SDS011;6921;53.642;9.956;2023-03-31T03:41:46;13.15;;;6.07;;
13698;SDS011;6921;53.642;9.956;2023-03-31T03:43:49;14.83;;;6.10;;
13698;SDS011;6921;53.642;9.956;2023-03-31T03:45:53;12.40;;;6.03;;
13698;SDS011;6921;53.642;9.956;2023-03-31T03:47:57;14.93;;;6.37;;
13698;SDS011;6921;53.642;9.956;2023-03-31T03:50:00;21.33;;;6.87;;
13698;SDS011;6921;53.642;9.956;2023-03-31T03:52:04;18.73;;;6.60;;
13698;SDS011;6921;53.642;9.956;2023-03-31T03:54:08;15.25;;;6.35;;
13698;SDS011;6921;53.642;9.956;2023-03-31T03:56:14;16.07;;;6.03;;
13698;SDS011;6921;53.642;9.956;2023-03-31T03:58:18;13.17;;;5.60;;
13698;SDS011;6921;53.642;9.956;2023-03-31T04:00:21;13.93;;;5.43;;
13698;SDS011;6921;53.642;9.956;2023-03-31T04:02:24;16.70;;;6.80;;
13698;SDS011;6921;53.642;9.956;2023-03-31T04:04:29;16.15;;;6.32;;
13698;SDS011;6921;53.642;9.956;2023-03-31T04:06:32;14.27;;;6.50;;
13698;SDS011;6921;53.642;9.956;2023-03-31T04:08:36;16.35;;;6.28;;
13698;SDS011;6921;53.642;9.956;2023-03-31T04:10:43;15.50;;;6.27;;
13698;SDS011;6921;53.642;9.956;2023-03-31T04:12:49;16.05;;;6.68;;
13698;SDS011;6921;53.642;9.956;2023-03-31T04:14:52;21.27;;;7.00;;
13698;SDS011;6921;53.642;9.956;2023-03-31T04:16:55;14.20;;;6.53;;
13698;SDS011;6921;53.642;9.956;2023-03-31T04:18:59;17.00;;;6.78;;
13698;SDS011;6921;53.642;9.956;2023-03-31T04:21:04;18.73;;;6.93;;
13698;SDS011;6921;53.642;9.956;2023-03-31T04:23:07;16.25;;;6.47;;
13698;SDS011;6921;53.642;9.956;2023-03-31T04:25:11;16.80;;;6.60;;
13698;SDS011;6921;53.642;9.956;2023-03-31T04:27:18;12.38;;;6.53;;
13698;SDS011;6921;53.642;9.956;2023-03-31T04:29:21;16.95;;;7.13;;
13698;SDS011;6921;53.642;9.956;2023-03-31T04:31:27;19.67;;;7.25;;
13698;SDS011;6921;53.642;9.956;2023-03-31T04:33:31;14.05;;;6.90;;
13698;SDS011;6921;53.642;9.956;2023-03-31T04:35:38;14.83;;;6.70;;
13698;SDS011;6921;53.642;9.956;2023-03-31T04:37:50;14.13;;;7.70;;
13698;SDS011;6921;53.642;9.956;2023-03-31T04:39:59;16.47;;;6.83;;
13698;SDS011;6921;53.642;9.956;2023-03-31T04:42:09;15.90;;;7.27;;
13698;SDS011;6921;53.642;9.956;2023-03-31T04:44:14;15.52;;;7.47;;
13698;SDS011;6921;53.642;9.956;2023-03-31T04:46:17;16.25;;;7.93;;
13698;SDS011;6921;53.642;9.956;2023-03-31T04:48:21;14.07;;;6.67;;
13698;SDS011;6921;53.642;9.956;2023-03-31T04:50:24;20.27;;;7.70;;
13698;SDS011;6921;53.642;9.956;2023-03-31T04:52:28;19.80;;;7.05;;
13698;SDS011;6921;53.642;9.956;2023-03-31T04:54:32;19.33;;;7.47;;
13698;SDS011;6921;53.642;9.956;2023-03-31T04:56:38;11.50;;;7.03;;
13698;SDS011;6921;53.642;9.956;2023-03-31T04:58:41;18.07;;;7.20;;
13698;SDS011;6921;53.642;9.956;2023-03-31T05:00:47;22.52;;;8.93;;
13698;SDS011;6921;53.642;9.956;2023-03-31T05:02:50;17.15;;;8.35;;
13698;SDS011;6921;53.642;9.956;2023-03-31T05:04:54;17.17;;;7.32;;
13698;SDS011;6921;53.642;9.956;2023-03-31T05:06:57;19.48;;;8.18;;
13698;SDS011;6921;53.642;9.956;2023-03-31T05:09:01;17.25;;;7.95;;
13698;SDS011;6921;53.642;9.956;2023-03-31T05:11:04;18.93;;;8.67;;
13698;SDS011;6921;53.642;9.956;2023-03-31T05:13:08;15.43;;;8.30;;
13698;SDS011;6921;53.642;9.956;2023-03-31T05:15:11;20.38;;;9.35;;
13698;SDS011;6921;53.642;9.956;2023-03-31T05:17:16;16.98;;;8.63;;
13698;SDS011;6921;53.642;9.956;2023-03-31T05:19:20;16.03;;;8.60;;
13698;SDS011;6921;53.642;9.956;2023-03-31T05:21:23;13.45;;;8.50;;
13698;SDS011;6921;53.642;9.956;2023-03-31T05:23:32;21.58;;;9.50;;
13698;SDS011;6921;53.642;9.956;2023-03-31T05:25:36;18.50;;;9.70;;
13698;SDS011;6921;53.642;9.956;2023-03-31T05:27:39;18.10;;;9.47;;
13698;SDS011;6921;53.642;9.956;2023-03-31T05:29:42;22.05;;;9.43;;
13698;SDS011;6921;53.642;9.956;2023-03-31T05:31:46;15.77;;;8.98;;
13698;SDS011;6921;53.642;9.956;2023-03-31T05:33:51;17.48;;;8.80;;
13698;SDS011;6921;53.642;9.956;2023-03-31T05:35:54;18.23;;;9.88;;
13698;SDS011;6921;53.642;9.956;2023-03-31T05:38:00;21.88;;;10.23;;
13698;SDS011;6921;53.642;9.956;2023-03-31T05:40:04;17.15;;;9.23;;
13698;SDS011;6921;53.642;9.956;2023-03-31T05:42:11;16.02;;;8.85;;
13698;SDS011;6921;53.642;9.956;2023-03-31T05:44:15;22.40;;;9.35;;
13698;SDS011;6921;53.642;9.956;2023-03-31T05:46:20;23.83;;;9.77;;
13698;SDS011;6921;53.642;9.956;2023-03-31T05:48:24;18.98;;;9.48;;
13698;SDS011;6921;53.642;9.956;2023-03-31T05:50:29;23.70;;;9.63;;
13698;SDS011;6921;53.642;9.956;2023-03-31T05:52:33;24.95;;;9.90;;
13698;SDS011;6921;53.642;9.956;2023-03-31T05:54:37;24.60;;;9.50;;
13698;SDS011;6921;53.642;9.956;2023-03-31T05:56:42;20.02;;;10.27;;
13698;SDS011;6921;53.642;9.956;2023-03-31T05:58:45;16.65;;;9.13;;
13698;SDS011;6921;53.642;9.956;2023-03-31T06:00:48;18.45;;;9.13;;
13698;SDS011;6921;53.642;9.956;2023-03-31T06:02:54;18.20;;;9.15;;
13698;SDS011;6921;53.642;9.956;2023-03-31T06:04:58;19.58;;;8.80;;
13698;SDS011;6921;53.642;9.956;2023-03-31T06:07:02;20.42;;;9.48;;
13698;SDS011;6921;53.642;9.956;2023-03-31T06:09:08;21.30;;;9.27;;
13698;SDS011;6921;53.642;9.956;2023-03-31T06:11:13;17.95;;;9.23;;
13698;SDS011;6921;53.642;9.956;2023-03-31T06:13:19;15.70;;;8.70;;
13698;SDS011;6921;53.642;9.956;2023-03-31T06:15:24;21.00;;;10.15;;
13698;SDS011;6921;53.642;9.956;2023-03-31T06:17:30;15.80;;;9.07;;
13698;SDS011;6921;53.642;9.956;2023-03-31T06:19:38;18.73;;;9.05;;
13698;SDS011;6921;53.642;9.956;2023-03-31T06:21:43;20.98;;;8.88;;
13698;SDS011;6921;53.642;9.956;2023-03-31T06:23:48;17.50;;;9.10;;
13698;SDS011;6921;53.642;9.956;2023-03-31T06:25:57;20.67;;;9.38;;
13698;SDS011;6921;53.642;9.956;2023-03-31T06:28:02;15.38;;;8.13;;
13698;SDS011;6921;53.642;9.956;2023-03-31T06:30:06;22.98;;;8.88;;
13698;SDS011;6921;53.642;9.956;2023-03-31T06:32:10;16.95;;;8.15;;
13698;SDS011;6921;53.642;9.956;2023-03-31T06:34:13;17.08;;;7.78;;
13698;SDS011;6921;53.642;9.956;2023-03-31T06:36:19;19.55;;;8.18;;
13698;SDS011;6921;53.642;9.956;2023-03-31T06:38:22;18.92;;;8.27;;
13698;SDS011;6921;53.642;9.956;2023-03-31T06:40:28;18.50;;;8.82;;
13698;SDS011;6921;53.642;9.956;2023-03-31T06:42:31;16.00;;;7.60;;
13698;SDS011;6921;53.642;9.956;2023-03-31T06:44:35;16.25;;;7.40;;
13698;SDS011;6921;53.642;9.956;2023-03-31T06:46:38;15.23;;;7.50;;
13698;SDS011;6921;53.642;9.956;2023-03-31T06:48:42;11.23;;;7.30;;
13698;SDS011;6921;53.642;9.956;2023-03-31T06:50:46;14.40;;;7.55;;
13698;SDS011;6921;53.642;9.956;2023-03-31T06:52:50;16.00;;;7.95;;
13698;SDS011;6921;53.642;9.956;2023-03-31T06:54:55;13.90;;;7.75;;
13698;SDS011;6921;53.642;9.956;2023-03-31T06:57:00;18.00;;;7.35;;
13698;SDS011;6921;53.642;9.956;2023-03-31T06:59:03;18.10;;;7.32;;
13698;SDS011;6921;53.642;9.956;2023-03-31T07:01:07;19.05;;;7.93;;
13698;SDS011;6921;53.642;9.956;2023-03-31T07:03:24;13.23;;;7.13;;
13698;SDS011;6921;53.642;9.956;2023-03-31T07:05:29;12.73;;;6.88;;
13698;SDS011;6921;53.642;9.956;2023-03-31T07:07:33;18.08;;;7.95;;
13698;SDS011;6921;53.642;9.956;2023-03-31T07:09:37;12.52;;;7.05;;
13698;SDS011;6921;53.642;9.956;2023-03-31T07:11:40;12.02;;;6.50;;
13698;SDS011;6921;53.642;9.956;2023-03-31T07:13:45;15.90;;;7.60;;
13698;SDS011;6921;53.642;9.956;2023-03-31T07:15:48;13.90;;;7.22;;
13698;SDS011;6921;53.642;9.956;2023-03-31T07:17:54;12.48;;;7.30;;
13698;SDS011;6921;53.642;9.956;2023-03-31T07:20:02;13.65;;;7.57;;
13698;SDS011;6921;53.642;9.956;2023-03-31T07:22:07;17.40;;;6.95;;
13698;SDS011;6921;53.642;9.956;2023-03-31T07:24:10;12.05;;;6.47;;
13698;SDS011;6921;53.642;9.956;2023-03-31T07:26:13;12.15;;;6.63;;
13698;SDS011;6921;53.642;9.956;2023-03-31T07:28:17;13.00;;;6.90;;
13698;SDS011;6921;53.642;9.956;2023-03-31T07:30:22;14.45;;;7.28;;
13698;SDS011;6921;53.642;9.956;2023-03-31T07:32:25;16.52;;;7.38;;
13698;SDS011;6921;53.642;9.956;2023-03-31T07:34:29;13.65;;;6.53;;
13698;SDS011;6921;53.642;9.956;2023-03-31T07:36:35;13.30;;;7.00;;
13698;SDS011;6921;53.642;9.956;2023-03-31T07:38:38;13.23;;;6.93;;
13698;SDS011;6921;53.642;9.956;2023-03-31T07:40:42;14.05;;;7.57;;
13698;SDS011;6921;53.642;9.956;2023-03-31T07:42:51;15.07;;;7.70;;
13698;SDS011;6921;53.642;9.956;2023-03-31T07:44:56;13.43;;;7.05;;
13698;SDS011;6921;53.642;9.956;2023-03-31T07:47:01;11.98;;;7.22;;
13698;SDS011;6921;53.642;9.956;2023-03-31T07:49:06;16.42;;;7.97;;
13698;SDS011;6921;53.642;9.956;2023-03-31T07:51:13;9.65;;;6.97;;
13698;SDS011;6921;53.642;9.956;2023-03-31T07:53:16;12.57;;;7.60;;
13698;SDS011;6921;53.642;9.956;2023-03-31T07:55:22;12.05;;;7.93;;
13698;SDS011;6921;53.642;9.956;2023-03-31T07:57:26;13.15;;;7.22;;
13698;SDS011;6921;53.642;9.956;2023-03-31T07:59:31;10.93;;;7.22;;
13698;SDS011;6921;53.642;9.956;2023-03-31T08:01:35;13.18;;;6.80;;
13698;SDS011;6921;53.642;9.956;2023-03-31T08:03:40;12.20;;;7.20;;
13698;SDS011;6921;53.642;9.956;2023-03-31T08:05:43;11.02;;;6.63;;
13698;SDS011;6921;53.642;9.956;2023-03-31T08:07:47;9.93;;;6.50;;
13698;SDS011;6921;53.642;9.956;2023-03-31T08:09:51;11.27;;;6.40;;
13698;SDS011;6921;53.642;9.956;2023-03-31T08:11:57;9.75;;;6.03;;
13698;SDS011;6921;53.642;9.956;2023-03-31T08:14:01;11.60;;;6.45;;
13698;SDS011;6921;53.642;9.956;2023-03-31T08:16:05;10.57;;;5.82;;
13698;SDS011;6921;53.642;9.956;2023-03-31T08:18:08;11.32;;;6.05;;
13698;SDS011;6921;53.642;9.956;2023-03-31T08:20:13;9.93;;;4.97;;
13698;SDS011;6921;53.642;9.956;2023-03-31T08:22:16;10.27;;;5.32;;
13698;SDS011;6921;53.642;9.956;2023-03-31T08:24:20;9.02;;;5.70;;
13698;SDS011;6921;53.642;9.956;2023-03-31T08:26:23;10.05;;;5.88;;
13698;SDS011;6921;53.642;9.956;2023-03-31T08:28:27;9.32;;;5.47;;
13698;SDS011;6921;53.642;9.956;2023-03-31T08:30:32;9.43;;;5.13;;
13698;SDS011;6921;53.642;9.956;2023-03-31T08:32:35;9.98;;;5.20;;
13698;SDS011;6921;53.642;9.956;2023-03-31T08:34:39;9.90;;;5.85;;
13698;SDS011;6921;53.642;9.956;2023-03-31T08:36:45;10.60;;;5.88;;
13698;SDS011;6921;53.642;9.956;2023-03-31T08:38:49;7.95;;;5.80;;
13698;SDS011;6921;53.642;9.956;2023-03-31T08:40:57;8.98;;;5.75;;
13698;SDS011;6921;53.642;9.956;2023-03-31T08:43:03;9.98;;;6.07;;
13698;SDS011;6921;53.642;9.956;2023-03-31T08:45:09;9.48;;;5.40;;
13698;SDS011;6921;53.642;9.956;2023-03-31T08:47:15;11.05;;;6.18;;
13698;SDS011;6921;53.642;9.956;2023-03-31T08:49:20;11.30;;;5.82;;
13698;SDS011;6921;53.642;9.956;2023-03-31T08:51:28;11.70;;;5.85;;
13698;SDS011;6921;53.642;9.956;2023-03-31T08:53:34;6.35;;;5.22;;
13698;SDS011;6921;53.642;9.956;2023-03-31T08:55:42;9.38;;;5.20;;
13698;SDS011;6921;53.642;9.956;2023-03-31T08:57:49;16.10;;;5.38;;
13698;SDS011;6921;53.642;9.956;2023-03-31T08:59:54;8.43;;;4.90;;
13698;SDS011;6921;53.642;9.956;2023-03-31T09:02:00;9.02;;;5.25;;
13698;SDS011;6921;53.642;9.956;2023-03-31T09:04:11;7.30;;;4.90;;
13698;SDS011;6921;53.642;9.956;2023-03-31T09:06:19;8.80;;;5.20;;
13698;SDS011;6921;53.642;9.956;2023-03-31T09:08:31;9.73;;;5.57;;
13698;SDS011;6921;53.642;9.956;2023-03-31T09:10:45;8.68;;;5.47;;
13698;SDS011;6921;53.642;9.956;2023-03-31T09:12:56;7.70;;;5.35;;
13698;SDS011;6921;53.642;9.956;2023-03-31T09:15:00;8.45;;;5.43;;
13698;SDS011;6921;53.642;9.956;2023-03-31T09:17:06;7.90;;;5.45;;
13698;SDS011;6921;53.642;9.956;2023-03-31T09:19:20;7.57;;;5.05;;
13698;SDS011;6921;53.642;9.956;2023-03-31T09:21:29;9.60;;;5.20;;
13698;SDS011;6921;53.642;9.956;2023-03-31T09:23:34;9.48;;;5.78;;
13698;SDS011;6921;53.642;9.956;2023-03-31T09:25:39;10.57;;;5.75;;
13698;SDS011;6921;53.642;9.956;2023-03-31T09:27:46;8.63;;;4.63;;
13698;SDS011;6921;53.642;9.956;2023-03-31T09:29:53;9.48;;;5.57;;
13698;SDS011;6921;53.642;9.956;2023-03-31T09:32:00;8.07;;;4.93;;
13698;SDS011;6921;53.642;9.956;2023-03-31T09:34:04;7.38;;;4.90;;
13698;SDS011;6921;53.642;9.956;2023-03-31T09:36:13;8.00;;;5.45;;
13698;SDS011;6921;53.642;9.956;2023-03-31T09:38:18;7.25;;;4.82;;
13698;SDS011;6921;53.642;9.956;2023-03-31T09:40:22;11.43;;;5.50;;
13698;SDS011;6921;53.642;9.956;2023-03-31T09:42:26;6.60;;;5.05;;
13698;SDS011;6921;53.642;9.956;2023-03-31T09:44:33;7.22;;;5.45;;
13698;SDS011;6921;53.642;9.956;2023-03-31T09:46:39;9.60;;;5.20;;
13698;SDS011;6921;53.642;9.956;2023-03-31T09:48:47;9.35;;;5.20;;
13698;SDS011;6921;53.642;9.956;2023-03-31T09:50:54;6.72;;;4.80;;
13698;SDS011;6921;53.642;9.956;2023-03-31T09:53:00;6.35;;;4.13;;
13698;SDS011;6921;53.642;9.956;2023-03-31T09:55:24;7.15;;;3.92;;
13698;SDS011;6921;53.642;9.956;2023-03-31T09:57:39;7.47;;;4.03;;
13698;SDS011;6921;53.642;9.956;2023-03-31T09:59:45;6.45;;;3.70;;
13698;SDS011;6921;53.642;9.956;2023-03-31T10:01:52;8.35;;;4.93;;
13698;SDS011;6921;53.642;9.956;2023-03-31T10:04:03;7.97;;;4.38;;
13698;SDS011;6921;53.642;9.956;2023-03-31T10:06:10;7.35;;;4.88;;
13698;SDS011;6921;53.642;9.956;2023-03-31T10:08:22;8.85;;;3.92;;
13698;SDS011;6921;53.642;9.956;2023-03-31T10:10:27;6.95;;;4.28;;
13698;SDS011;6921;53.642;9.956;2023-03-31T10:12:35;6.50;;;4.20;;
13698;SDS011;6921;53.642;9.956;2023-03-31T10:14:43;6.93;;;4.28;;
13698;SDS011;6921;53.642;9.956;2023-03-31T10:16:52;8.05;;;4.28;;
13698;SDS011;6921;53.642;9.956;2023-03-31T10:19:09;9.95;;;4.85;;
13698;SDS011;6921;53.642;9.956;2023-03-31T10:21:17;7.45;;;4.63;;
13698;SDS011;6921;53.642;9.956;2023-03-31T10:23:22;6.63;;;4.57;;
13698;SDS011;6921;53.642;9.956;2023-03-31T10:25:26;8.10;;;4.80;;
13698;SDS011;6921;53.642;9.956;2023-03-31T10:27:31;7.55;;;4.47;;
13698;SDS011;6921;53.642;9.956;2023-03-31T10:29:36;6.20;;;4.85;;
13698;SDS011;6921;53.642;9.956;2023-03-31T10:31:42;8.35;;;5.15;;
13698;SDS011;6921;53.642;9.956;2023-03-31T10:33:49;7.07;;;5.05;;
13698;SDS011;6921;53.642;9.956;2023-03-31T10:35:54;7.10;;;4.93;;
13698;SDS011;6921;53.642;9.956;2023-03-31T10:38:01;8.43;;;5.82;;
13698;SDS011;6921;53.642;9.956;2023-03-31T10:40:12;8.27;;;5.00;;
13698;SDS011;6921;53.642;9.956;2023-03-31T10:42:20;6.55;;;5.32;;
13698;SDS011;6921;53.642;9.956;2023-03-31T10:44:31;8.98;;;5.60;;
13698;SDS011;6921;53.642;9.956;2023-03-31T10:46:38;6.82;;;5.35;;
13698;SDS011;6921;53.642;9.956;2023-03-31T10:48:43;8.25;;;5.43;;
13698;SDS011;6921;53.642;9.956;2023-03-31T10:50:47;6.88;;;5.50;;
13698;SDS011;6921;53.642;9.956;2023-03-31T10:52:51;7.60;;;5.57;;
13698;SDS011;6921;53.642;9.956;2023-03-31T10:54:55;10.13;;;5.93;;
13698;SDS011;6921;53.642;9.956;2023-03-31T10:57:00;9.65;;;5.43;;
13698;SDS011;6921;53.642;9.956;2023-03-31T10:59:12;7.55;;;5.05;;
13698;SDS011;6921;53.642;9.956;2023-03-31T11:01:22;8.30;;;4.55;;
13698;SDS011;6921;53.642;9.956;2023-03-31T11:03:33;6.38;;;4.40;;
13698;SDS011;6921;53.642;9.956;2023-03-31T11:06:04;5.88;;;4.35;;
13698;SDS011;6921;53.642;9.956;2023-03-31T11:08:18;5.90;;;4.45;;
13698;SDS011;6921;53.642;9.956;2023-03-31T11:10:36;7.38;;;4.47;;
13698;SDS011;6921;53.642;9.956;2023-03-31T11:12:58;5.68;;;4.03;;
13698;SDS011;6921;53.642;9.956;2023-03-31T11:15:09;6.35;;;4.47;;
13698;SDS011;6921;53.642;9.956;2023-03-31T11:17:19;5.90;;;3.90;;
13698;SDS011;6921;53.642;9.956;2023-03-31T11:19:31;4.85;;;4.30;;
13698;SDS011;6921;53.642;9.956;2023-03-31T11:21:47;6.40;;;4.45;;
13698;SDS011;6921;53.642;9.956;2023-03-31T11:23:59;5.20;;;4.03;;
13698;SDS011;6921;53.642;9.956;2023-03-31T11:26:10;6.63;;;5.00;;
13698;SDS011;6921;53.642;9.956;2023-03-31T11:31:04;4.63;;;3.83;;
13698;SDS011;6921;53.642;9.956;2023-03-31T11:33:29;6.70;;;3.70;;
13698;SDS011;6921;53.642;9.956;2023-03-31T11:35:42;6.78;;;3.60;;
13698;SDS011;6921;53.642;9.956;2023-03-31T11:38:01;4.93;;;2.97;;
13698;SDS011;6921;53.642;9.956;2023-03-31T11:40:24;3.20;;;2.90;;
13698;SDS011;6921;53.642;9.956;2023-03-31T11:42:32;6.38;;;3.30;;
13698;SDS011;6921;53.642;9.956;2023-03-31T11:44:47;5.07;;;3.33;;
13698;SDS011;6921;53.642;9.956;2023-03-31T11:46:53;4.82;;;3.50;;
13698;SDS011;6921;53.642;9.956;2023-03-31T11:49:01;5.80;;;3.42;;
13698;SDS011;6921;53.642;9.956;2023-03-31T11:51:08;4.43;;;3.08;;
13698;SDS011;6921;53.642;9.956;2023-03-31T11:53:14;5.15;;;3.33;;
13698;SDS011;6921;53.642;9.956;2023-03-31T11:55:19;8.30;;;3.00;;
13698;SDS011;6921;53.642;9.956;2023-03-31T11:57:27;6.20;;;2.90;;
13698;SDS011;6921;53.642;9.956;2023-03-31T11:59:32;4.40;;;2.97;;
13698;SDS011;6921;53.642;9.956;2023-03-31T12:01:40;3.30;;;2.50;;
13698;SDS011;6921;53.642;9.956;2023-03-31T12:03:46;4.53;;;2.90;;
13698;SDS011;6921;53.642;9.956;2023-03-31T12:05:55;3.65;;;2.78;;
13698;SDS011;6921;53.642;9.956;2023-03-31T12:08:07;5.80;;;2.80;;
13698;SDS011;6921;53.642;9.956;2023-03-31T12:10:18;4.38;;;3.47;;
13698;SDS011;6921;53.642;9.956;2023-03-31T12:12:23;4.43;;;3.22;;
13698;SDS011;6921;53.642;9.956;2023-03-31T12:14:29;8.13;;;3.47;;
13698;SDS011;6921;53.642;9.956;2023-03-31T12:16:34;5.68;;;3.33;;
13698;SDS011;6921;53.642;9.956;2023-03-31T12:18:43;7.60;;;3.90;;
13698;SDS011;6921;53.642;9.956;2023-03-31T12:20:54;9.20;;;5.35;;
13698;SDS011;6921;53.642;9.956;2023-03-31T12:22:59;6.07;;;4.05;;
13698;SDS011;6921;53.642;9.956;2023-03-31T12:25:10;6.82;;;3.80;;
13698;SDS011;6921;53.642;9.956;2023-03-31T12:27:16;4.10;;;3.30;;
13698;SDS011;6921;53.642;9.956;2023-03-31T12:29:25;4.75;;;2.80;;
13698;SDS011;6921;53.642;9.956;2023-03-31T12:31:31;6.18;;;3.00;;
13698;SDS011;6921;53.642;9.956;2023-03-31T12:33:36;4.25;;;2.78;;
13698;SDS011;6921;53.642;9.956;2023-03-31T12:35:48;5.30;;;3.22;;
13698;SDS011;6921;53.642;9.956;2023-03-31T12:37:59;5.53;;;3.22;;
13698;SDS011;6921;53.642;9.956;2023-03-31T12:40:11;7.63;;;3.50;;
13698;SDS011;6921;53.642;9.956;2023-03-31T12:42:25;4.57;;;3.38;;
13698;SDS011;6921;53.642;9.956;2023-03-31T12:44:42;3.85;;;3.47;;
13698;SDS011;6921;53.642;9.956;2023-03-31T12:49:19;9.10;;;3.80;;
13698;SDS011;6921;53.642;9.956;2023-03-31T12:51:37;6.40;;;3.75;;
13698;SDS011;6921;53.642;9.956;2023-03-31T12:53:50;6.20;;;4.05;;
13698;SDS011;6921;53.642;9.956;2023-03-31T12:56:00;9.02;;;4.88;;
13698;SDS011;6921;53.642;9.956;2023-03-31T13:00:27;7.30;;;5.55;;